Time;durP1;ratioP1;P1;durP2;ratioP2;P2;SDS_P1;SDS_P2;PMS_P1;PMS_P2;Temp;Humidity;BMP_temperature;BMP_pressure;BME280_temperature;BME280_humidity;BME280_pressure;Samples;Min_cycle;Max_cycle;Signal;HPM_P1;HPM_P2
2022/07/26 00:00:18;;;;;;;1.67;1.57;;;20.70;99.90;;;;;;493275;241;28767;-68
2022/07/26 00:02:19;;;;;;;1.73;1.50;;;20.70;99.90;;;;;;493268;241;28781;-69
2022/07/26 00:04:20;;;;;;;1.77;1.67;;;20.70;99.90;;;;;;493263;241;28670;-69
2022/07/26 00:06:22;;;;;;;1.70;1.60;;;20.70;99.90;;;;;;493189;241;28725;-68
2022/07/26 00:08:23;;;;;;;1.80;1.70;;;20.70;99.90;;;;;;493214;241;28714;-71
2022/07/26 00:10:24;;;;;;;1.83;1.73;;;20.70;99.90;;;;;;493266;241;28675;-68
2022/07/26 00:12:25;;;;;;;1.70;1.60;;;20.60;99.90;;;;;;493252;241;28710;-70
2022/07/26 00:14:27;;;;;;;1.70;1.60;;;20.60;99.90;;;;;;493261;241;29139;-68
2022/07/26 00:16:28;;;;;;;2.83;1.83;;;20.60;99.90;;;;;;493193;241;29166;-68
2022/07/26 00:18:29;;;;;;;2.10;1.80;;;20.60;99.90;;;;;;493307;241;29191;-72
2022/07/26 00:20:30;;;;;;;1.97;1.87;;;20.50;99.90;;;;;;493292;241;28695;-68
2022/07/26 00:22:35;;;;;;;1.87;1.77;;;20.50;99.90;;;;;;493298;241;28691;-70
2022/07/26 00:24:36;;;;;;;1.70;1.60;;;20.50;99.90;;;;;;493294;241;29166;-69
2022/07/26 00:26:37;;;;;;;1.63;1.53;;;20.50;99.90;;;;;;493197;241;29947;-68
2022/07/26 00:28:40;;;;;;;1.90;1.80;;;20.40;99.90;;;;;;493297;241;29135;-69
2022/07/26 00:30:40;;;;;;;2.30;1.63;;;20.40;99.90;;;;;;493201;241;28853;-72
2022/07/26 00:32:41;;;;;;;1.80;1.70;;;20.30;99.90;;;;;;493276;241;28679;-68
2022/07/26 00:34:42;;;;;;;2.20;2.00;;;20.30;99.90;;;;;;493212;241;28712;-72
2022/07/26 00:36:43;;;;;;;2.13;1.70;;;20.20;99.90;;;;;;493212;241;28745;-70
2022/07/26 00:38:45;;;;;;;2.17;2.07;;;20.10;99.90;;;;;;493279;241;28668;-68
2022/07/26 00:40:46;;;;;;;2.00;1.90;;;20.20;99.90;;;;;;493329;241;28724;-70
2022/07/26 00:42:47;;;;;;;1.60;1.50;;;20.10;99.90;;;;;;493302;241;28683;-68
2022/07/26 00:44:48;;;;;;;1.70;1.60;;;20.00;99.90;;;;;;493083;241;28713;-68
2022/07/26 00:46:50;;;;;;;1.67;1.57;;;19.90;99.90;;;;;;493186;241;28737;-68
2022/07/26 00:48:51;;;;;;;1.73;1.67;;;19.90;99.90;;;;;;493289;241;29216;-68
2022/07/26 00:50:52;;;;;;;2.03;1.80;;;19.90;99.90;;;;;;493209;241;29281;-69
2022/07/26 00:52:54;;;;;;;1.77;1.70;;;19.90;99.90;;;;;;493269;241;29122;-68
2022/07/26 00:54:55;;;;;;;1.70;1.60;;;19.90;99.90;;;;;;493262;241;29197;-68
2022/07/26 00:56:56;;;;;;;1.57;1.57;;;19.80;99.90;;;;;;493222;241;28695;-68
2022/07/26 00:58:57;;;;;;;1.60;1.50;;;19.80;99.90;;;;;;493285;241;28671;-69
2022/07/26 01:00:58;;;;;;;1.50;1.50;;;19.70;99.90;;;;;;493282;241;28714;-71
2022/07/26 01:03:00;;;;;;;1.70;1.60;;;19.70;99.90;;;;;;493262;241;28725;-70
2022/07/26 01:05:01;;;;;;;1.47;1.37;;;19.70;99.90;;;;;;493258;241;28695;-69
2022/07/26 01:07:02;;;;;;;1.40;1.30;;;19.60;99.90;;;;;;493191;241;28697;-72
2022/07/26 01:09:04;;;;;;;1.77;1.67;;;19.60;99.90;;;;;;493282;241;28680;-68
2022/07/26 01:11:05;;;;;;;1.60;1.50;;;19.50;99.90;;;;;;493255;241;28704;-71
2022/07/26 01:13:06;;;;;;;1.73;1.63;;;19.50;99.90;;;;;;493240;241;29127;-68
2022/07/26 01:15:07;;;;;;;2.10;1.47;;;19.50;99.90;;;;;;493243;241;29249;-68
2022/07/26 01:17:08;;;;;;;1.40;1.30;;;19.50;99.90;;;;;;493213;241;29285;-73
2022/07/26 01:19:10;;;;;;;1.70;1.60;;;19.40;99.90;;;;;;493283;241;29265;-68
2022/07/26 01:21:11;;;;;;;1.50;1.50;;;19.30;99.90;;;;;;493283;241;28774;-69
2022/07/26 01:23:12;;;;;;;2.10;2.00;;;19.30;99.90;;;;;;493262;241;28759;-70
2022/07/26 01:25:13;;;;;;;2.00;1.80;;;19.20;99.90;;;;;;493243;241;28698;-69
2022/07/26 01:27:15;;;;;;;1.80;1.70;;;19.20;99.90;;;;;;493080;241;28799;-71
2022/07/26 01:29:16;;;;;;;1.67;1.57;;;19.10;99.90;;;;;;493276;241;28663;-68
2022/07/26 01:31:17;;;;;;;1.50;1.40;;;19.10;99.90;;;;;;493216;241;28821;-69
2022/07/26 01:33:18;;;;;;;2.80;1.83;;;19.10;99.90;;;;;;493259;241;28700;-68
2022/07/26 01:35:20;;;;;;;1.60;1.50;;;19.00;99.90;;;;;;493055;241;28730;-68
2022/07/26 01:37:21;;;;;;;1.77;1.67;;;19.10;99.90;;;;;;493123;241;29115;-71
2022/07/26 01:39:22;;;;;;;4.33;1.80;;;19.00;99.90;;;;;;493275;241;29233;-69
2022/07/26 01:41:23;;;;;;;2.03;1.93;;;19.00;99.90;;;;;;493281;241;29168;-70
2022/07/26 01:43:25;;;;;;;2.30;2.10;;;19.00;99.90;;;;;;493263;241;29214;-68
2022/07/26 01:45:26;;;;;;;1.70;1.60;;;19.00;99.90;;;;;;493246;241;28782;-68
2022/07/26 01:47:27;;;;;;;2.10;2.00;;;19.00;99.90;;;;;;493063;241;28723;-69
2022/07/26 01:49:28;;;;;;;1.63;1.63;;;19.10;99.90;;;;;;493278;241;28692;-69
2022/07/26 01:51:30;;;;;;;1.93;1.83;;;19.10;99.90;;;;;;493256;241;28723;-70
2022/07/26 01:53:31;;;;;;;1.93;1.83;;;19.10;99.90;;;;;;493266;241;28671;-68
2022/07/26 01:55:32;;;;;;;1.80;1.70;;;19.00;99.90;;;;;;493269;241;28790;-69
2022/07/26 01:57:33;;;;;;;1.90;1.80;;;19.00;99.90;;;;;;493081;241;28712;-71
2022/07/26 01:59:35;;;;;;;1.93;1.83;;;19.00;99.90;;;;;;493273;241;28808;-69
2022/07/26 02:01:36;;;;;;;2.03;1.93;;;18.90;99.90;;;;;;493287;241;28814;-68
2022/07/26 02:03:37;;;;;;;3.07;1.90;;;18.80;99.90;;;;;;493276;241;29145;-68
2022/07/26 02:05:38;;;;;;;1.90;1.80;;;18.80;99.90;;;;;;493274;241;29199;-68
2022/07/26 02:07:40;;;;;;;1.93;1.73;;;18.80;99.90;;;;;;493211;241;29315;-71
2022/07/26 02:09:41;;;;;;;1.53;1.43;;;18.70;99.90;;;;;;493281;241;29145;-69
2022/07/26 02:11:42;;;;;;;1.87;1.77;;;18.60;99.90;;;;;;493277;241;28800;-69
2022/07/26 02:13:44;;;;;;;1.90;1.80;;;18.70;99.90;;;;;;493259;241;28683;-68
2022/07/26 02:15:45;;;;;;;1.70;1.60;;;18.60;99.90;;;;;;493233;241;28695;-70
2022/07/26 02:17:46;;;;;;;2.23;2.03;;;18.60;99.90;;;;;;493072;241;28825;-71
2022/07/26 02:19:47;;;;;;;1.90;1.80;;;18.50;99.90;;;;;;493261;241;28678;-68
2022/07/26 02:21:48;;;;;;;1.97;1.87;;;18.40;99.90;;;;;;493270;241;28711;-69
2022/07/26 02:23:50;;;;;;;1.80;1.70;;;18.30;99.90;;;;;;493250;241;28711;-68
2022/07/26 02:25:51;;;;;;;2.03;1.93;;;18.30;99.90;;;;;;493237;241;28726;-69
2022/07/26 02:27:52;;;;;;;2.00;1.90;;;18.30;99.90;;;;;;493102;241;29811;-71
2022/07/26 02:29:53;;;;;;;1.87;1.77;;;18.40;99.90;;;;;;493261;241;29159;-68
2022/07/26 02:31:55;;;;;;;1.80;1.70;;;18.40;99.90;;;;;;493254;241;29175;-69
2022/07/26 02:33:56;;;;;;;1.80;1.70;;;18.40;99.90;;;;;;493246;241;29153;-68
2022/07/26 02:35:57;;;;;;;1.90;1.80;;;18.30;99.90;;;;;;493058;241;28805;-68
2022/07/26 02:37:58;;;;;;;3.00;1.77;;;18.30;99.90;;;;;;493213;241;28708;-71
2022/07/26 02:40:01;;;;;;;2.13;1.93;;;18.30;99.90;;;;;;493261;241;28790;-68
2022/07/26 02:42:01;;;;;;;1.77;1.67;;;18.20;99.90;;;;;;493177;241;28738;-70
2022/07/26 02:44:02;;;;;;;2.03;1.93;;;18.20;99.90;;;;;;493252;241;28679;-69
2022/07/26 02:46:03;;;;;;;2.07;1.97;;;18.20;99.90;;;;;;493208;241;28809;-68
2022/07/26 02:48:05;;;;;;;1.90;1.80;;;18.20;99.90;;;;;;493203;241;28711;-71
2022/07/26 02:50:06;;;;;;;2.03;1.93;;;18.10;99.90;;;;;;493283;241;28702;-68
2022/07/26 02:52:07;;;;;;;2.17;2.07;;;18.00;99.90;;;;;;493254;241;28718;-71
2022/07/26 02:54:08;;;;;;;1.87;1.77;;;18.00;99.90;;;;;;493227;241;29140;-68
2022/07/26 02:56:10;;;;;;;1.93;1.83;;;18.00;99.90;;;;;;493155;241;29270;-69
2022/07/26 02:58:11;;;;;;;2.30;1.90;;;18.00;99.90;;;;;;493279;241;29270;-68
2022/07/26 03:00:12;;;;;;;2.10;2.00;;;18.00;99.90;;;;;;493293;241;28671;-68
2022/07/26 03:02:13;;;;;;;2.10;2.00;;;18.10;99.90;;;;;;493264;241;28711;-71
2022/07/26 03:04:15;;;;;;;1.77;1.67;;;18.10;99.90;;;;;;493278;241;28714;-68
2022/07/26 03:06:16;;;;;;;2.00;1.80;;;18.10;99.90;;;;;;493157;241;28700;-69
2022/07/26 03:08:17;;;;;;;2.40;1.90;;;18.00;99.90;;;;;;493279;241;28766;-68
2022/07/26 03:10:18;;;;;;;4.00;2.20;;;18.00;99.90;;;;;;493256;241;28702;-68
2022/07/26 03:12:20;;;;;;;2.23;2.13;;;18.00;99.90;;;;;;493273;241;28751;-69
2022/07/26 03:14:21;;;;;;;2.00;1.90;;;17.90;99.90;;;;;;493257;241;28773;-68
2022/07/26 03:16:22;;;;;;;2.10;2.00;;;17.90;99.90;;;;;;493211;241;28766;-68
2022/07/26 03:18:23;;;;;;;2.87;2.67;;;17.90;99.90;;;;;;493283;241;29761;-71
2022/07/26 03:20:25;;;;;;;2.20;2.00;;;17.90;99.90;;;;;;493249;241;29255;-68
2022/07/26 03:22:26;;;;;;;2.40;2.20;;;17.90;99.90;;;;;;493291;241;29181;-69
2022/07/26 03:24:27;;;;;;;2.20;2.10;;;17.90;99.90;;;;;;493282;241;29193;-68
2022/07/26 03:26:28;;;;;;;2.30;2.20;;;17.90;99.90;;;;;;493216;241;28743;-68
2022/07/26 03:28:30;;;;;;;2.63;2.30;;;17.80;99.90;;;;;;493314;241;28761;-72
2022/07/26 03:30:31;;;;;;;2.30;2.07;;;17.70;99.90;;;;;;493257;241;28769;-68
2022/07/26 03:32:32;;;;;;;2.40;2.20;;;17.70;99.90;;;;;;493282;241;28704;-69
2022/07/26 03:34:33;;;;;;;2.40;2.20;;;17.70;99.90;;;;;;493184;241;29137;-70
2022/07/26 03:36:35;;;;;;;3.10;2.43;;;17.70;99.90;;;;;;493086;241;29198;-68
2022/07/26 03:38:36;;;;;;;2.83;2.53;;;17.70;99.90;;;;;;493283;241;28709;-68
2022/07/26 03:40:37;;;;;;;2.00;1.90;;;17.70;99.90;;;;;;493283;241;28703;-68
2022/07/26 03:42:39;;;;;;;2.33;2.17;;;17.60;99.90;;;;;;493284;241;28698;-69
2022/07/26 03:44:40;;;;;;;2.20;2.00;;;17.60;99.90;;;;;;493270;241;28724;-69
2022/07/26 03:46:41;;;;;;;2.43;2.30;;;17.60;99.90;;;;;;493185;241;29182;-69
2022/07/26 03:48:42;;;;;;;2.30;2.20;;;17.50;99.90;;;;;;493292;241;29780;-71
2022/07/26 03:50:44;;;;;;;2.60;2.07;;;17.60;99.90;;;;;;493253;241;29149;-68
2022/07/26 03:52:45;;;;;;;2.60;2.40;;;17.60;99.90;;;;;;493278;241;28779;-69
2022/07/26 03:54:46;;;;;;;2.47;2.27;;;17.50;99.90;;;;;;493225;241;28676;-69
2022/07/26 03:56:47;;;;;;;1.90;1.80;;;17.50;99.90;;;;;;493186;241;28707;-69
2022/07/26 03:58:49;;;;;;;2.53;2.33;;;17.50;99.90;;;;;;493287;241;28708;-67
2022/07/26 04:00:50;;;;;;;2.83;2.60;;;17.40;99.90;;;;;;493280;241;28786;-68
2022/07/26 04:02:51;;;;;;;3.27;2.30;;;17.40;99.90;;;;;;493277;241;28703;-69
2022/07/26 04:04:52;;;;;;;2.73;2.53;;;17.30;99.90;;;;;;493252;241;28677;-68
2022/07/26 04:06:55;;;;;;;2.70;2.50;;;17.30;99.90;;;;;;493175;241;28716;-69
2022/07/26 04:08:55;;;;;;;3.13;2.33;;;17.30;99.90;;;;;;493200;241;28712;-72
2022/07/26 04:10:56;;;;;;;3.33;2.60;;;17.30;99.90;;;;;;493289;241;28686;-68
2022/07/26 04:12:57;;;;;;;3.07;2.37;;;17.30;99.90;;;;;;493259;241;28838;-69
2022/07/26 04:14:59;;;;;;;2.50;2.30;;;17.30;99.90;;;;;;493205;241;28680;-68
2022/07/26 04:17:00;;;;;;;3.97;2.53;;;17.20;99.90;;;;;;493192;241;28827;-67
2022/07/26 04:19:01;;;;;;;4.63;2.67;;;17.20;99.90;;;;;;493274;241;28704;-71
2022/07/26 04:21:02;;;;;;;3.43;2.60;;;17.20;99.90;;;;;;493257;241;29238;-68
2022/07/26 04:23:04;;;;;;;5.40;2.43;;;17.20;99.90;;;;;;493238;241;29198;-69
2022/07/26 04:25:05;;;;;;;3.53;2.50;;;17.20;99.90;;;;;;493262;241;29166;-68
2022/07/26 04:27:06;;;;;;;3.80;2.10;;;17.20;99.90;;;;;;493199;241;28712;-68
2022/07/26 04:29:07;;;;;;;4.03;2.40;;;17.20;99.90;;;;;;493299;241;28787;-72
2022/07/26 04:31:09;;;;;;;2.50;2.30;;;17.20;99.90;;;;;;493242;241;28673;-68
2022/07/26 04:33:10;;;;;;;2.40;2.30;;;17.10;99.90;;;;;;493261;241;29286;-68
2022/07/26 04:35:11;;;;;;;2.57;2.37;;;17.20;99.90;;;;;;493053;241;29196;-68
2022/07/26 04:37:12;;;;;;;2.67;2.47;;;17.10;99.90;;;;;;493162;241;29245;-68
2022/07/26 04:39:14;;;;;;;3.53;2.57;;;17.10;99.90;;;;;;493256;241;28779;-71
2022/07/26 04:41:15;;;;;;;4.23;2.30;;;17.10;99.90;;;;;;493280;241;28661;-68
2022/07/26 04:43:16;;;;;;;3.37;2.37;;;17.10;99.90;;;;;;493248;241;28727;-69
2022/07/26 04:45:17;;;;;;;2.37;2.17;;;17.10;99.90;;;;;;493238;241;28701;-67
2022/07/26 04:47:19;;;;;;;2.27;2.07;;;17.20;99.90;;;;;;493184;241;28701;-68
2022/07/26 04:49:20;;;;;;;2.30;2.10;;;17.20;99.90;;;;;;493223;241;28754;-72
2022/07/26 04:51:21;;;;;;;3.00;2.10;;;17.30;99.90;;;;;;493240;241;28692;-68
2022/07/26 04:53:22;;;;;;;2.40;2.20;;;17.30;99.90;;;;;;493256;241;28803;-69
2022/07/26 04:55:24;;;;;;;2.43;2.20;;;17.30;99.90;;;;;;493234;241;28676;-68
2022/07/26 04:57:25;;;;;;;2.53;2.33;;;17.40;99.90;;;;;;493227;241;28746;-69
2022/07/26 04:59:26;;;;;;;2.10;2.00;;;17.40;99.90;;;;;;493189;241;28790;-70
2022/07/26 05:01:28;;;;;;;2.37;2.10;;;17.40;99.90;;;;;;493242;241;28769;-68
2022/07/26 05:03:29;;;;;;;4.33;2.10;;;17.30;99.90;;;;;;493258;241;28734;-69
2022/07/26 05:05:30;;;;;;;3.00;2.50;;;17.20;99.90;;;;;;493251;241;28733;-68
2022/07/26 05:07:31;;;;;;;1.80;1.70;;;17.30;99.90;;;;;;493204;241;28704;-69
2022/07/26 05:09:33;;;;;;;2.20;2.00;;;17.30;99.90;;;;;;493218;241;28719;-70
2022/07/26 05:11:34;;;;;;;2.00;1.90;;;17.10;99.90;;;;;;493240;241;28695;-69
2022/07/26 05:13:35;;;;;;;2.00;1.80;;;17.20;99.90;;;;;;493239;241;29242;-70
2022/07/26 05:15:36;;;;;;;1.80;1.70;;;17.20;99.90;;;;;;493232;241;30050;-68
2022/07/26 05:17:38;;;;;;;3.20;2.10;;;17.30;99.90;;;;;;493218;241;29224;-69
2022/07/26 05:19:39;;;;;;;3.10;2.00;;;17.20;99.90;;;;;;493288;241;28807;-70
2022/07/26 05:21:40;;;;;;;2.50;1.90;;;17.20;99.90;;;;;;493236;240;28795;-68
2022/07/26 05:23:41;;;;;;;2.57;1.97;;;17.30;99.90;;;;;;493244;241;28802;-68
2022/07/26 05:25:43;;;;;;;3.23;1.80;;;17.30;99.90;;;;;;493249;241;28672;-68
2022/07/26 05:27:44;;;;;;;2.27;2.10;;;17.20;99.90;;;;;;493219;241;28765;-68
2022/07/26 05:29:45;;;;;;;2.30;2.20;;;17.20;99.90;;;;;;493254;241;28727;-71
2022/07/26 05:31:46;;;;;;;2.10;1.90;;;17.20;99.90;;;;;;493227;241;28679;-69
2022/07/26 05:33:48;;;;;;;2.23;1.93;;;17.20;99.90;;;;;;493234;241;28782;-69
2022/07/26 05:35:49;;;;;;;2.20;2.00;;;17.20;99.90;;;;;;493045;241;28689;-68
2022/07/26 05:37:50;;;;;;;4.30;2.13;;;17.20;99.90;;;;;;493178;241;29296;-69
2022/07/26 05:39:51;;;;;;;2.03;1.93;;;17.20;99.90;;;;;;493265;241;29342;-72
2022/07/26 05:41:53;;;;;;;2.03;1.83;;;17.20;99.90;;;;;;493241;241;29147;-67
2022/07/26 05:43:54;;;;;;;2.13;1.90;;;17.20;99.90;;;;;;493247;241;28738;-69
2022/07/26 05:45:55;;;;;;;4.33;2.13;;;17.30;99.90;;;;;;493230;241;28766;-68
2022/07/26 05:47:56;;;;;;;2.00;1.90;;;17.20;99.90;;;;;;493223;241;28688;-68
2022/07/26 05:49:58;;;;;;;3.17;2.13;;;17.20;99.90;;;;;;493260;241;28805;-71
2022/07/26 05:51:59;;;;;;;1.90;1.80;;;17.20;99.90;;;;;;493250;241;28664;-68
2022/07/26 05:54:00;;;;;;;2.10;1.90;;;17.20;99.90;;;;;;493243;241;28801;-69
2022/07/26 05:56:01;;;;;;;2.20;2.00;;;17.20;99.90;;;;;;493185;241;28687;-69
2022/07/26 05:58:03;;;;;;;2.27;2.10;;;17.30;99.90;;;;;;493244;241;28680;-69
2022/07/26 06:00:04;;;;;;;1.70;1.60;;;17.30;99.90;;;;;;493267;241;29185;-70
2022/07/26 06:02:07;;;;;;;1.70;1.60;;;17.20;99.90;;;;;;493252;241;29129;-68
2022/07/26 06:04:07;;;;;;;2.10;1.97;;;17.10;99.90;;;;;;493141;241;29162;-68
2022/07/26 06:06:08;;;;;;;1.93;1.80;;;17.20;99.90;;;;;;493112;241;28942;-69
2022/07/26 06:08:09;;;;;;;2.33;2.07;;;17.20;99.90;;;;;;493239;241;28676;-68
2022/07/26 06:10:10;;;;;;;2.00;1.70;;;17.20;99.90;;;;;;493075;241;28750;-70
2022/07/26 06:12:11;;;;;;;2.03;1.60;;;17.20;99.90;;;;;;493046;241;28675;-67
2022/07/26 06:14:13;;;;;;;2.43;1.70;;;17.20;99.90;;;;;;493013;241;28731;-68
2022/07/26 06:16:14;;;;;;;2.23;1.93;;;17.40;99.90;;;;;;493171;241;28703;-71
2022/07/26 06:18:15;;;;;;;2.33;2.10;;;17.30;99.90;;;;;;493249;241;28763;-67
2022/07/26 06:20:16;;;;;;;1.90;1.80;;;17.30;99.90;;;;;;493133;241;28813;-70
2022/07/26 06:22:18;;;;;;;3.03;2.00;;;17.30;99.90;;;;;;493209;241;28760;-68
2022/07/26 06:24:19;;;;;;;1.93;1.83;;;17.20;99.90;;;;;;493266;241;29174;-68
2022/07/26 06:26:22;;;;;;;2.20;2.10;;;17.20;99.90;;;;;;493229;241;29284;-72
2022/07/26 06:28:21;;;;;;;2.10;2.00;;;17.20;99.90;;;;;;493121;241;29214;-68
2022/07/26 06:30:23;;;;;;;2.50;2.30;;;17.30;99.90;;;;;;493289;241;29301;-69
2022/07/26 06:32:24;;;;;;;2.00;1.90;;;17.40;99.90;;;;;;493264;241;28704;-69
2022/07/26 06:34:25;;;;;;;2.50;2.03;;;17.40;99.90;;;;;;493279;241;28743;-68
2022/07/26 06:36:27;;;;;;;2.47;2.27;;;17.40;99.90;;;;;;492876;241;28812;-71
2022/07/26 06:38:28;;;;;;;3.03;2.33;;;17.40;99.90;;;;;;493282;241;28781;-68
2022/07/26 06:40:29;;;;;;;2.43;2.23;;;17.50;99.90;;;;;;493268;241;28774;-69
2022/07/26 06:42:31;;;;;;;1.80;1.70;;;17.50;99.90;;;;;;493266;241;28779;-68
2022/07/26 06:44:32;;;;;;;2.30;2.20;;;17.60;99.90;;;;;;493236;241;28687;-69
2022/07/26 06:46:33;;;;;;;2.13;2.03;;;17.70;99.90;;;;;;493238;241;28713;-71
2022/07/26 06:48:34;;;;;;;1.93;1.80;;;17.80;99.90;;;;;;493275;241;28689;-68
2022/07/26 06:50:35;;;;;;;2.30;1.93;;;17.80;99.90;;;;;;493242;241;28714;-68
2022/07/26 06:52:37;;;;;;;2.03;1.93;;;17.70;99.90;;;;;;493287;241;28829;-68
2022/07/26 06:54:38;;;;;;;2.37;2.17;;;17.80;99.90;;;;;;493275;241;28668;-68
2022/07/26 06:56:39;;;;;;;3.27;2.20;;;17.90;99.90;;;;;;493212;241;28734;-69
2022/07/26 06:58:40;;;;;;;2.50;2.30;;;17.90;99.90;;;;;;493254;241;28712;-68
2022/07/26 07:00:42;;;;;;;2.20;2.10;;;17.80;99.90;;;;;;493245;241;28721;-69
2022/07/26 07:02:43;;;;;;;2.40;2.20;;;17.90;99.90;;;;;;493263;241;28699;-72
2022/07/26 07:04:44;;;;;;;2.97;2.30;;;18.00;99.90;;;;;;493281;241;28807;-68
2022/07/26 07:06:45;;;;;;;3.13;2.20;;;18.00;99.90;;;;;;493207;241;28811;-71
2022/07/26 07:08:47;;;;;;;2.37;2.13;;;18.00;99.90;;;;;;493278;241;29160;-68
2022/07/26 07:10:48;;;;;;;2.67;2.10;;;17.90;99.90;;;;;;493261;241;29265;-68
2022/07/26 07:12:49;;;;;;;2.40;2.30;;;17.80;99.90;;;;;;493294;241;29351;-67
2022/07/26 07:14:50;;;;;;;2.10;1.90;;;17.90;99.90;;;;;;493284;241;28714;-68
2022/07/26 07:16:52;;;;;;;2.50;2.30;;;17.90;99.90;;;;;;493201;241;28792;-70
2022/07/26 07:18:53;;;;;;;4.20;3.40;;;18.00;99.90;;;;;;493257;241;28676;-69
2022/07/26 07:20:54;;;;;;;2.70;2.30;;;18.10;99.90;;;;;;493262;241;28710;-69
2022/07/26 07:22:55;;;;;;;3.60;2.40;;;18.20;99.90;;;;;;493290;241;28706;-67
2022/07/26 07:24:57;;;;;;;2.10;1.90;;;18.30;99.90;;;;;;493297;241;28677;-69
2022/07/26 07:27:02;;;;;;;3.47;1.97;;;18.30;99.90;;;;;;493211;241;28858;-69
2022/07/26 07:28:59;;;;;;;1.97;1.80;;;18.40;99.90;;;;;;493057;241;28716;-68
2022/07/26 07:31:00;;;;;;;3.40;2.37;;;18.50;99.90;;;;;;493266;241;28711;-68
2022/07/26 07:33:02;;;;;;;2.43;1.80;;;18.50;99.90;;;;;;493279;241;29254;-71
2022/07/26 07:35:03;;;;;;;3.03;1.90;;;18.50;99.90;;;;;;493165;241;29168;-68
2022/07/26 07:37:04;;;;;;;2.33;2.17;;;18.50;99.90;;;;;;493205;241;29181;-70
2022/07/26 07:39:05;;;;;;;4.50;1.93;;;18.50;99.90;;;;;;493268;241;29144;-68
2022/07/26 07:41:07;;;;;;;2.43;2.10;;;18.50;99.90;;;;;;493270;241;28704;-68
2022/07/26 07:43:08;;;;;;;3.20;2.00;;;18.50;99.90;;;;;;493252;241;28707;-71
2022/07/26 07:45:10;;;;;;;3.53;1.87;;;18.50;99.90;;;;;;493268;241;28677;-69
2022/07/26 07:47:10;;;;;;;4.17;2.33;;;18.70;99.90;;;;;;493160;241;28797;-69
2022/07/26 07:49:12;;;;;;;4.70;2.13;;;18.60;99.90;;;;;;493254;241;28752;-68
2022/07/26 07:51:13;;;;;;;2.97;2.10;;;18.80;99.90;;;;;;493282;241;28751;-68
2022/07/26 07:53:14;;;;;;;3.03;2.00;;;18.80;99.90;;;;;;493292;241;28740;-73
2022/07/26 07:55:15;;;;;;;3.00;2.13;;;18.70;99.90;;;;;;493286;241;28678;-69
2022/07/26 07:57:18;;;;;;;4.10;2.30;;;18.80;99.90;;;;;;493206;241;29097;-69
2022/07/26 07:59:18;;;;;;;2.70;2.00;;;19.00;99.90;;;;;;493076;241;29144;-68
2022/07/26 08:01:19;;;;;;;1.97;1.87;;;19.10;99.90;;;;;;493287;241;29193;-69
2022/07/26 08:03:20;;;;;;;3.27;1.90;;;19.20;99.90;;;;;;493296;241;29211;-72
2022/07/26 08:05:22;;;;;;;6.67;1.97;;;19.40;99.90;;;;;;493282;241;28668;-68
2022/07/26 08:07:23;;;;;;;2.00;1.80;;;19.50;99.90;;;;;;493221;241;28720;-69
2022/07/26 08:09:24;;;;;;;5.20;2.03;;;19.50;99.90;;;;;;493267;241;28671;-68
2022/07/26 08:11:26;;;;;;;2.80;2.30;;;19.50;99.90;;;;;;493271;241;28714;-69
2022/07/26 08:13:27;;;;;;;2.00;1.90;;;19.50;99.90;;;;;;493298;241;28769;-73
2022/07/26 08:15:28;;;;;;;3.17;2.03;;;19.50;99.90;;;;;;493277;241;28683;-70
2022/07/26 08:17:29;;;;;;;2.23;2.00;;;19.60;99.90;;;;;;493213;241;28708;-70
2022/07/26 08:19:30;;;;;;;3.03;2.07;;;19.60;99.90;;;;;;493276;241;28822;-69
2022/07/26 08:21:32;;;;;;;6.30;2.20;;;19.60;99.90;;;;;;493259;241;28789;-68
2022/07/26 08:23:33;;;;;;;1.90;1.80;;;19.60;99.90;;;;;;493287;241;29652;-73
2022/07/26 08:25:34;;;;;;;2.70;2.50;;;19.50;99.90;;;;;;493287;241;29222;-69
2022/07/26 08:27:35;;;;;;;2.80;1.90;;;19.50;99.90;;;;;;493221;241;29186;-70
2022/07/26 08:29:37;;;;;;;2.43;2.00;;;19.30;99.90;;;;;;493264;241;28683;-68
2022/07/26 08:31:38;;;;;;;3.50;1.80;;;19.30;99.90;;;;;;493280;241;28696;-69
2022/07/26 08:33:39;;;;;;;2.00;1.80;;;19.30;99.90;;;;;;493273;241;28771;-72
2022/07/26 08:35:40;;;;;;;4.63;1.80;;;19.30;99.90;;;;;;493191;241;28734;-70
2022/07/26 08:37:42;;;;;;;1.73;1.63;;;19.40;99.90;;;;;;493211;241;28708;-70
2022/07/26 08:39:43;;;;;;;1.80;1.70;;;19.50;99.90;;;;;;493224;241;28781;-68
2022/07/26 08:41:44;;;;;;;2.17;1.80;;;19.70;99.90;;;;;;493248;241;28714;-70
2022/07/26 08:43:45;;;;;;;2.90;2.07;;;19.80;99.90;;;;;;493307;241;28718;-72
2022/07/26 08:45:47;;;;;;;2.57;1.90;;;19.70;99.90;;;;;;493268;241;28700;-69
2022/07/26 08:47:48;;;;;;;3.87;2.10;;;19.80;99.90;;;;;;493203;241;29186;-69
2022/07/26 08:49:49;;;;;;;3.17;1.80;;;19.90;99.90;;;;;;493261;241;29200;-69
2022/07/26 08:51:50;;;;;;;2.17;1.80;;;20.10;99.90;;;;;;493254;241;29207;-69
2022/07/26 08:53:52;;;;;;;2.50;1.60;;;20.30;99.90;;;;;;493250;241;29191;-72
2022/07/26 08:55:53;;;;;;;3.77;1.83;;;20.20;99.90;;;;;;493248;241;28679;-69
2022/07/26 08:57:54;;;;;;;1.60;1.50;;;20.10;99.90;;;;;;493205;241;28705;-70
2022/07/26 08:59:55;;;;;;;3.23;2.17;;;20.10;99.90;;;;;;493281;241;28760;-68
2022/07/26 09:01:57;;;;;;;1.80;1.70;;;19.90;99.90;;;;;;493253;241;28703;-68
2022/07/26 09:03:59;;;;;;;2.07;1.67;;;20.10;99.90;;;;;;493305;241;28728;-71
2022/07/26 09:06:00;;;;;;;2.50;1.80;;;20.40;99.90;;;;;;493267;241;29102;-70
2022/07/26 09:08:02;;;;;;;3.17;1.60;;;20.50;99.90;;;;;;493222;241;28722;-69
2022/07/26 09:10:03;;;;;;;3.37;2.33;;;20.60;99.90;;;;;;493262;241;29172;-68
2022/07/26 09:12:04;;;;;;;2.20;2.00;;;20.60;99.90;;;;;;493248;241;29994;-69
2022/07/26 09:14:05;;;;;;;2.93;1.80;;;20.30;99.90;;;;;;493289;241;29164;-68
2022/07/26 09:16:07;;;;;;;4.63;2.03;;;20.40;99.90;;;;;;493229;241;29256;-72
2022/07/26 09:18:08;;;;;;;4.00;1.90;;;20.40;99.90;;;;;;493266;241;28661;-69
2022/07/26 09:20:09;;;;;;;2.50;1.90;;;20.40;99.90;;;;;;493293;241;28709;-69
2022/07/26 09:22:10;;;;;;;2.60;1.80;;;20.50;99.90;;;;;;493244;241;28746;-68
2022/07/26 09:24:12;;;;;;;2.30;1.80;;;20.60;99.90;;;;;;493272;241;28813;-69
2022/07/26 09:26:13;;;;;;;2.40;1.90;;;20.70;99.90;;;;;;493193;241;28714;-71
2022/07/26 09:28:14;;;;;;;2.17;1.90;;;21.00;99.90;;;;;;492327;241;35811;-69
2022/07/26 09:30:15;;;;;;;1.70;1.60;;;21.10;99.90;;;;;;493252;241;28216;-69
2022/07/26 09:32:17;;;;;;;2.17;1.90;;;21.20;99.90;;;;;;493231;241;29071;-70
2022/07/26 09:34:18;;;;;;;3.00;2.00;;;21.50;99.90;;;;;;493270;241;29213;-69
2022/07/26 09:36:20;;;;;;;3.77;2.07;;;21.20;99.90;;;;;;493100;241;29251;-71
2022/07/26 09:38:20;;;;;;;1.70;1.60;;;21.00;99.90;;;;;;493251;241;29141;-70
2022/07/26 09:40:22;;;;;;;1.87;1.77;;;21.00;99.90;;;;;;493265;241;29205;-69
2022/07/26 09:42:23;;;;;;;3.80;1.70;;;21.30;99.90;;;;;;493287;241;28722;-69
2022/07/26 09:44:24;;;;;;;2.47;1.70;;;21.60;99.90;;;;;;493282;241;28680;-68
2022/07/26 09:46:25;;;;;;;2.27;2.07;;;21.40;99.90;;;;;;493211;241;28714;-71
2022/07/26 09:48:28;;;;;;;1.80;1.70;;;21.10;99.90;;;;;;493282;241;28690;-68
2022/07/26 09:50:28;;;;;;;2.53;1.80;;;20.80;99.90;;;;;;493146;241;28707;-69
2022/07/26 09:52:29;;;;;;;2.30;2.10;;;20.90;99.90;;;;;;493269;241;28750;-68
2022/07/26 09:54:30;;;;;;;2.30;2.10;;;21.30;99.90;;;;;;493279;241;28675;-69
2022/07/26 09:56:32;;;;;;;2.10;1.90;;;21.30;99.90;;;;;;493213;241;28766;-71
2022/07/26 09:58:33;;;;;;;2.83;1.77;;;21.40;99.90;;;;;;493263;241;29046;-69
2022/07/26 10:00:34;;;;;;;2.10;1.80;;;21.40;99.90;;;;;;493272;241;29186;-69
2022/07/26 10:02:35;;;;;;;1.80;1.70;;;21.40;99.90;;;;;;493261;241;29250;-68
2022/07/26 10:04:37;;;;;;;2.17;2.00;;;21.30;99.90;;;;;;493285;241;29155;-69
2022/07/26 10:06:38;;;;;;;5.03;1.80;;;21.10;99.90;;;;;;493204;241;28710;-70
2022/07/26 10:08:39;;;;;;;2.67;2.10;;;21.00;99.90;;;;;;493221;241;28675;-69
2022/07/26 10:10:40;;;;;;;2.10;1.90;;;21.00;99.90;;;;;;493235;241;28764;-69
2022/07/26 10:12:44;;;;;;;2.53;2.10;;;21.00;99.90;;;;;;493288;241;28706;-72
2022/07/26 10:14:44;;;;;;;2.40;1.80;;;20.90;99.90;;;;;;493099;241;28673;-69
2022/07/26 10:16:44;;;;;;;2.40;2.13;;;20.90;99.90;;;;;;493103;241;28723;-70
2022/07/26 10:18:46;;;;;;;2.77;1.70;;;21.10;99.90;;;;;;493241;241;28684;-68
2022/07/26 10:20:47;;;;;;;2.33;1.70;;;21.10;99.90;;;;;;493259;241;28801;-69
2022/07/26 10:22:51;;;;;;;3.03;1.80;;;21.30;99.90;;;;;;493274;241;28709;-72
2022/07/26 10:24:49;;;;;;;1.97;1.80;;;21.40;99.90;;;;;;493095;241;29141;-68
2022/07/26 10:26:50;;;;;;;3.33;2.00;;;21.40;99.90;;;;;;493185;241;29182;-69
2022/07/26 10:28:52;;;;;;;1.87;1.77;;;21.40;99.90;;;;;;493258;241;29197;-69
2022/07/26 10:30:53;;;;;;;2.30;2.10;;;21.30;99.90;;;;;;493251;241;28718;-69